Centaurus Dream — 7JPG — position and weather

sailwx.info

Track history (hours):
 
Tides and Currents Weather Stations Pressure Air Temp Water Temp Dewpoint Dewpoint Depression Visibility Wind Speed Wind Dir Waves Ship Positions

Centaurus Dream

Last reported at 2017-Nov-16 08:31 UTC. Time now 2017-Nov-18 06:29 UTC.
Position N 31°06' E 122°19'.

Length 292 m; draft 10.4 m.

Type: Cargo ship. MMSI: 432950000.

Date/timePositionNaut miles runAvg speedWind from/ knotsBaromVisibWave heightAir tempDewpointWater temp
2017-Nov-16 08:31N 31°06' E 122°19'313.3
2017-Nov-16 08:19N 31°07' E 122°16'812.2
2017-Nov-16 07:41N 31°12' E 122°09'212.9
2017-Nov-16 07:30N 31°13' E 122°07'713.3
2017-Nov-16 07:00N 31°15' E 121°59'612.9
2017-Nov-16 06:30N 31°16' E 121°52'713.2
2017-Nov-16 06:01N 31°19' E 121°45'510.6
2017-Nov-16 05:30N 31°21' E 121°39'510.5
2017-Nov-16 05:00N 31°24' E 121°34'4 8.8
2017-Nov-16 04:30N 31°26' E 121°29'3 6.0
2017-Nov-16 04:00N 31°28' E 121°27'4 8.9
2017-Nov-16 03:30N 31°31' E 121°23'510.7
2017-Nov-16 03:00N 31°34' E 121°18'510.9
2017-Nov-16 02:30N 31°39' E 121°14'510.0
2017-Nov-16 02:00N 31°42' E 121°09'612.5
2017-Nov-16 01:30N 31°46' E 121°04'912.4
2017-Nov-16 00:47N 31°50' E 120°54'413.0
2017-Nov-16 00:27N 31°54' E 120°53'1911.7
2017-Nov-15 22:51N 32°01' E 120°33'514.0
2017-Nov-15 22:28N 32°02' E 120°26'4 0.1
2017-Nov-14 03:07N 32°00' E 120°22'2 9.7
2017-Nov-14 02:54N 32°01' E 120°24'410.0
2017-Nov-14 02:31N 32°02' E 120°29'28 9.5
2017-Nov-13 23:32N 31°47' E 120°57'2 9.3
2017-Nov-13 23:18N 31°47' E 120°59'3 9.9
2017-Nov-13 23:01N 31°46' E 121°03'710.9
2017-Nov-13 22:23N 31°42' E 121°09'411.2
2017-Nov-13 22:01N 31°39' E 121°13'  
2017-Nov-10 04:09N 31°10' E 122°45'0 0.2
2017-Nov-10 03:54N 31°10' E 122°45'0 0.1
2017-Nov-10 03:27N 31°10' E 122°45'0 0.0
2017-Nov-09 23:45N 31°10' E 122°46'0 0.0
2017-Nov-09 23:27N 31°10' E 122°46'0 0.1
2017-Nov-09 22:33N 31°10' E 122°46'0 0.1
2017-Nov-09 21:33N 31°10' E 122°46'0 0.1
2017-Nov-09 21:21N 31°10' E 122°46'0 0.0
2017-Nov-09 21:00N 31°11' E 122°46'0 0.0
2017-Nov-09 20:15N 31°11' E 122°46'0 0.0
2017-Nov-09 19:54N 31°11' E 122°46'0 0.1
2017-Nov-09 19:30N 31°11' E 122°46'0 0.0
2017-Nov-09 18:57N 31°11' E 122°46'0 0.0
2017-Nov-09 18:30N 31°11' E 122°46'0 0.1
2017-Nov-09 17:36N 31°11' E 122°46'0 0.0
2017-Nov-09 17:15N 31°11' E 122°46'0 0.0
2017-Nov-09 16:57N 31°11' E 122°46'0 0.1
2017-Nov-09 13:15N 31°10' E 122°46'0 0.1
2017-Nov-09 13:00N 31°10' E 122°46'0 0.1
2017-Nov-09 12:27N 31°10' E 122°46'0 0.0
2017-Nov-09 11:21N 31°10' E 122°46'0 0.2
2017-Nov-09 10:37N 31°10' E 122°46'0 1.6
2017-Nov-09 10:29N 31°10' E 122°45'2 4.4
2017-Nov-09 10:00N 31°12' E 122°45'4 7.7
2017-Nov-09 09:30N 31°16' E 122°44'4 6.1
2017-Nov-09 08:54N 31°19' E 122°46'  
Track history (hours):
 
Tides and Currents Weather Stations Pressure Air Temp Water Temp Dewpoint Dewpoint Depression Visibility Wind Speed Wind Dir Waves Ship Positions

Centaurus Dream

Last reported at 2017-Nov-16 08:31 UTC. Time now 2017-Nov-18 06:29 UTC.
Position N 31°06' E 122°19'.

Length 292 m; draft 10.4 m.

Type: Cargo ship. MMSI: 432950000.

Date/timePositionNaut miles runAvg speedWind from/ knotsBaromVisibWave heightAir tempDewpointWater temp
2017-Nov-16 08:31N 31°06' E 122°19'313.3
2017-Nov-16 08:19N 31°07' E 122°16'812.2
2017-Nov-16 07:41N 31°12' E 122°09'212.9
2017-Nov-16 07:30N 31°13' E 122°07'713.3
2017-Nov-16 07:00N 31°15' E 121°59'612.9
2017-Nov-16 06:30N 31°16' E 121°52'713.2
2017-Nov-16 06:01N 31°19' E 121°45'510.6
2017-Nov-16 05:30N 31°21' E 121°39'510.5
2017-Nov-16 05:00N 31°24' E 121°34'4 8.8
2017-Nov-16 04:30N 31°26' E 121°29'3 6.0
2017-Nov-16 04:00N 31°28' E 121°27'4 8.9
2017-Nov-16 03:30N 31°31' E 121°23'510.7
2017-Nov-16 03:00N 31°34' E 121°18'510.9
2017-Nov-16 02:30N 31°39' E 121°14'510.0
2017-Nov-16 02:00N 31°42' E 121°09'612.5
2017-Nov-16 01:30N 31°46' E 121°04'912.4
2017-Nov-16 00:47N 31°50' E 120°54'413.0
2017-Nov-16 00:27N 31°54' E 120°53'1911.7
2017-Nov-15 22:51N 32°01' E 120°33'514.0
2017-Nov-15 22:28N 32°02' E 120°26'4 0.1
2017-Nov-14 03:07N 32°00' E 120°22'2 9.7
2017-Nov-14 02:54N 32°01' E 120°24'410.0
2017-Nov-14 02:31N 32°02' E 120°29'28 9.5
2017-Nov-13 23:32N 31°47' E 120°57'2 9.3
2017-Nov-13 23:18N 31°47' E 120°59'3 9.9
2017-Nov-13 23:01N 31°46' E 121°03'710.9
2017-Nov-13 22:23N 31°42' E 121°09'411.2
2017-Nov-13 22:01N 31°39' E 121°13'  
2017-Nov-10 04:09N 31°10' E 122°45'0 0.2
2017-Nov-10 03:54N 31°10' E 122°45'0 0.1
2017-Nov-10 03:27N 31°10' E 122°45'0 0.0
2017-Nov-09 23:45N 31°10' E 122°46'0 0.0
2017-Nov-09 23:27N 31°10' E 122°46'0 0.1
2017-Nov-09 22:33N 31°10' E 122°46'0 0.1
2017-Nov-09 21:33N 31°10' E 122°46'0 0.1
2017-Nov-09 21:21N 31°10' E 122°46'0 0.0
2017-Nov-09 21:00N 31°11' E 122°46'0 0.0
2017-Nov-09 20:15N 31°11' E 122°46'0 0.0
2017-Nov-09 19:54N 31°11' E 122°46'0 0.1
2017-Nov-09 19:30N 31°11' E 122°46'0 0.0
2017-Nov-09 18:57N 31°11' E 122°46'0 0.0
2017-Nov-09 18:30N 31°11' E 122°46'0 0.1
2017-Nov-09 17:36N 31°11' E 122°46'0 0.0
2017-Nov-09 17:15N 31°11' E 122°46'0 0.0
2017-Nov-09 16:57N 31°11' E 122°46'0 0.1
2017-Nov-09 13:15N 31°10' E 122°46'0 0.1
2017-Nov-09 13:00N 31°10' E 122°46'0 0.1
2017-Nov-09 12:27N 31°10' E 122°46'0 0.0
2017-Nov-09 11:21N 31°10' E 122°46'0 0.2
2017-Nov-09 10:37N 31°10' E 122°46'0 1.6
2017-Nov-09 10:29N 31°10' E 122°45'2 4.4
2017-Nov-09 10:00N 31°12' E 122°45'4 7.7
2017-Nov-09 09:30N 31°16' E 122°44'4 6.1
2017-Nov-09 08:54N 31°19' E 122°46'  

Dump ship's entire track history